Newark, Illinois
Current Conditions -  °F | °C
As of 9:35 PM on Sunday 23 Nov 2014 (Local Time) from KC09 Reporting Station
Moderate Rain Moderate Rain  
Wind Chill: 49°   Ceiling: 500
Heat Index: 49°   Visibility: 0.5mi
Dew Point: 49°   Wind: 0mph
Humidity: 100%   Direction: NA
Pressure: 29.17"   Gusts: NA
Location:  41.54°N, 88.58°W
Report Text: KC09 240335Z AUTO 00000KT 1/2SM RA OVC005 10/10 A2917 RMK AO2 T00960096
Loading
Personal Weather Stations






























Interactive Weather Map New forecast layout! Learn more

10-Day Weather Forecast

Advertisements
Track Severe Weather on mobile